QTR21D OTHH-HECA
Flight info
| Callsign | QTR21D |
|---|---|
| Flight time | N/A |
| Altitude | 40000 |
| Route | TULUB B457 NARMI N697 HIL T540 ENABI L550 NOVPA N697 MENLI L677 CVO |
| Aircraft | A35K/H-SDE2E3GHIJ3J4J5LM1ORWXY/LB1D1 |
Departure
| Time | 2026-05-05 09:55 |
|---|---|
| Airport | Hamad International Airport (OTHH) |
Arrival
| Time | N/A |
|---|---|
| Airport | Cairo International Airport (HECA) |
| Time | Latitude | Longitude | Altitude | Speed | Heading |
|---|---|---|---|---|---|
| 2026-05-05 09:16 | 25.26608 | 51.61265 | 28 ft | 0 kts | 248° |
| 2026-05-05 09:19 | 25.26608 | 51.61266 | 28 ft | 0 kts | 248° |
| 2026-05-05 09:36 | 25.26612 | 51.61277 | 29 ft | 4 kts | 247° |
| 2026-05-05 09:36 | 25.26622 | 51.61304 | 28 ft | 4 kts | 247° |
| 2026-05-05 09:37 | 25.26633 | 51.61331 | 27 ft | 3 kts | 242° |
| 2026-05-05 09:37 | 25.26642 | 51.61345 | 27 ft | 2 kts | 216° |
| 2026-05-05 09:37 | 25.26652 | 51.61349 | 29 ft | 2 kts | 171° |
| 2026-05-05 09:37 | 25.26663 | 51.61347 | 27 ft | 2 kts | 160° |
| 2026-05-05 09:38 | 25.26665 | 51.61346 | 28 ft | 0 kts | 160° |
| 2026-05-05 09:41 | 25.26664 | 51.61346 | 28 ft | 0 kts | 160° |
| 2026-05-05 09:41 | 25.26656 | 51.61350 | 28 ft | 2 kts | 157° |
| 2026-05-05 09:42 | 25.26634 | 51.61360 | 28 ft | 5 kts | 157° |
| 2026-05-05 09:42 | 25.26596 | 51.61378 | 28 ft | 7 kts | 157° |
| 2026-05-05 09:42 | 25.26542 | 51.61403 | 28 ft | 10 kts | 157° |
| 2026-05-05 09:42 | 25.26488 | 51.61427 | 28 ft | 8 kts | 158° |
| 2026-05-05 09:43 | 25.26431 | 51.61454 | 28 ft | 10 kts | 153° |
| 2026-05-05 09:43 | 25.26396 | 51.61516 | 28 ft | 10 kts | 90° |
| 2026-05-05 09:43 | 25.26419 | 51.61596 | 28 ft | 12 kts | 70° |
| 2026-05-05 09:43 | 25.26452 | 51.61688 | 28 ft | 14 kts | 68° |
| 2026-05-05 09:44 | 25.26477 | 51.61757 | 28 ft | 15 kts | 68° |
| 2026-05-05 09:44 | 25.26512 | 51.61854 | 28 ft | 9 kts | 68° |
| 2026-05-05 09:44 | 25.26552 | 51.61916 | 28 ft | 10 kts | 26° |
| 2026-05-05 09:44 | 25.26625 | 51.61905 | 28 ft | 12 kts | 341° |
| 2026-05-05 09:45 | 25.26708 | 51.61870 | 28 ft | 14 kts | 339° |
| 2026-05-05 09:45 | 25.26804 | 51.61829 | 28 ft | 16 kts | 339° |
| 2026-05-05 09:45 | 25.26912 | 51.61781 | 28 ft | 18 kts | 337° |
| 2026-05-05 09:45 | 25.26949 | 51.61764 | 28 ft | 1 kts | 337° |
| 2026-05-05 09:46 | 25.26960 | 51.61759 | 28 ft | 3 kts | 337° |
| 2026-05-05 09:46 | 25.26986 | 51.61747 | 28 ft | 5 kts | 338° |
| 2026-05-05 09:46 | 25.27028 | 51.61728 | 28 ft | 8 kts | 338° |
| 2026-05-05 09:46 | 25.27085 | 51.61704 | 28 ft | 10 kts | 339° |
| 2026-05-05 09:47 | 25.27158 | 51.61673 | 28 ft | 12 kts | 338° |
| 2026-05-05 09:47 | 25.27244 | 51.61635 | 28 ft | 14 kts | 338° |
| 2026-05-05 09:47 | 25.27343 | 51.61591 | 28 ft | 17 kts | 338° |
| 2026-05-05 09:47 | 25.27422 | 51.61534 | 28 ft | 7 kts | 289° |
| 2026-05-05 09:48 | 25.27413 | 51.61469 | 28 ft | 13 kts | 250° |
| 2026-05-05 09:48 | 25.27370 | 51.61350 | 28 ft | 19 kts | 245° |
| 2026-05-05 09:48 | 25.27319 | 51.61212 | 28 ft | 20 kts | 248° |
| 2026-05-05 09:48 | 25.27263 | 51.61054 | 28 ft | 24 kts | 248° |
| 2026-05-05 09:49 | 25.27196 | 51.60869 | 28 ft | 28 kts | 248° |
| 2026-05-05 09:49 | 25.27120 | 51.60666 | 28 ft | 29 kts | 248° |
| 2026-05-05 09:49 | 25.27043 | 51.60451 | 28 ft | 31 kts | 248° |
| 2026-05-05 09:49 | 25.26966 | 51.60235 | 27 ft | 26 kts | 249° |
| 2026-05-05 09:50 | 25.26855 | 51.60174 | 29 ft | 21 kts | 161° |
| 2026-05-05 09:50 | 25.26716 | 51.60236 | 30 ft | 22 kts | 157° |
| 2026-05-05 09:50 | 25.26568 | 51.60302 | 32 ft | 24 kts | 158° |
| 2026-05-05 09:50 | 25.26414 | 51.60370 | 27 ft | 25 kts | 157° |
| 2026-05-05 09:51 | 25.26249 | 51.60443 | 27 ft | 26 kts | 159° |
| 2026-05-05 09:51 | 25.26075 | 51.60519 | 27 ft | 28 kts | 158° |
| 2026-05-05 09:51 | 25.25897 | 51.60599 | 27 ft | 23 kts | 158° |
| 2026-05-05 09:51 | 25.25812 | 51.60636 | 26 ft | 0 kts | 159° |
| 2026-05-05 09:52 | 25.25806 | 51.60638 | 26 ft | 2 kts | 159° |
| 2026-05-05 09:53 | 25.25785 | 51.60647 | 26 ft | 5 kts | 159° |
| 2026-05-05 09:53 | 25.25746 | 51.60664 | 26 ft | 7 kts | 159° |
| 2026-05-05 09:53 | 25.25692 | 51.60688 | 26 ft | 10 kts | 158° |
| 2026-05-05 09:53 | 25.25622 | 51.60702 | 26 ft | 10 kts | 198° |
| 2026-05-05 09:54 | 25.25577 | 51.60640 | 27 ft | 12 kts | 248° |
| 2026-05-05 09:54 | 25.25561 | 51.60569 | 22 ft | 8 kts | 276° |
| 2026-05-05 09:54 | 25.25588 | 51.60531 | 21 ft | 6 kts | 325° |
| 2026-05-05 09:54 | 25.25675 | 51.60491 | 22 ft | 28 kts | 338° |
| 2026-05-05 09:55 | 25.26084 | 51.60310 | 27 ft | 99 kts | 338° |
| 2026-05-05 09:55 | 25.26929 | 51.59940 | 25 ft | 160 kts | 338° |
| 2026-05-05 09:55 | 25.27990 | 51.59450 | 638 ft | 163 kts | 337° |
| 2026-05-05 09:55 | 25.29027 | 51.58971 | 1335 ft | 164 kts | 338° |
| 2026-05-05 09:56 | 25.30145 | 51.58489 | 1603 ft | 180 kts | 339° |
| 2026-05-05 09:56 | 25.31363 | 51.57967 | 1823 ft | 197 kts | 338° |
| 2026-05-05 09:56 | 25.32702 | 51.57374 | 1997 ft | 219 kts | 338° |
| 2026-05-05 09:56 | 25.34185 | 51.56715 | 2229 ft | 240 kts | 338° |
| 2026-05-05 09:57 | 25.35797 | 51.55989 | 2548 ft | 257 kts | 335° |
| 2026-05-05 09:57 | 25.37358 | 51.54919 | 2871 ft | 274 kts | 321° |
| 2026-05-05 09:57 | 25.38808 | 51.53451 | 3228 ft | 288 kts | 315° |
| 2026-05-05 09:57 | 25.40179 | 51.51808 | 3803 ft | 293 kts | 311° |
| 2026-05-05 09:58 | 25.41486 | 51.50097 | 4387 ft | 296 kts | 310° |
| 2026-05-05 09:58 | 25.42770 | 51.48288 | 4874 ft | 305 kts | 305° |
| 2026-05-05 09:58 | 25.43783 | 51.46122 | 5115 ft | 322 kts | 294° |
| 2026-05-05 09:58 | 25.44566 | 51.43743 | 5335 ft | 337 kts | 289° |
| 2026-05-05 09:59 | 25.45239 | 51.41210 | 5568 ft | 350 kts | 286° |
| 2026-05-05 09:59 | 25.45857 | 51.38570 | 5884 ft | 358 kts | 285° |
| 2026-05-05 09:59 | 25.46450 | 51.35915 | 6296 ft | 362 kts | 285° |
| 2026-05-05 09:59 | 25.47056 | 51.33200 | 6747 ft | 364 kts | 285° |
| 2026-05-05 10:00 | 25.47674 | 51.30480 | 7245 ft | 364 kts | 285° |
| 2026-05-05 10:00 | 25.48307 | 51.27754 | 7738 ft | 365 kts | 285° |
| 2026-05-05 10:00 | 25.48951 | 51.25028 | 8244 ft | 366 kts | 285° |
| 2026-05-05 10:00 | 25.49604 | 51.22293 | 8736 ft | 367 kts | 285° |
| 2026-05-05 10:01 | 25.50259 | 51.19562 | 9240 ft | 368 kts | 285° |
| 2026-05-05 10:01 | 25.50915 | 51.16823 | 9702 ft | 369 kts | 285° |
| 2026-05-05 10:01 | 25.51566 | 51.14097 | 10143 ft | 371 kts | 285° |
| 2026-05-05 10:01 | 25.52234 | 51.11299 | 10589 ft | 372 kts | 285° |
| 2026-05-05 10:02 | 25.52882 | 51.08576 | 11176 ft | 368 kts | 284° |
| 2026-05-05 10:02 | 25.53529 | 51.05852 | 11777 ft | 365 kts | 284° |
| 2026-05-05 10:02 | 25.54176 | 51.03128 | 12285 ft | 366 kts | 284° |
| 2026-05-05 10:02 | 25.54824 | 51.00397 | 12783 ft | 367 kts | 284° |
| 2026-05-05 10:03 | 25.55474 | 50.97652 | 13260 ft | 369 kts | 284° |
| 2026-05-05 10:03 | 25.56127 | 50.94896 | 13717 ft | 371 kts | 284° |
| 2026-05-05 10:03 | 25.56783 | 50.92128 | 14101 ft | 373 kts | 284° |
| 2026-05-05 10:03 | 25.57444 | 50.89330 | 14490 ft | 376 kts | 284° |
| 2026-05-05 10:04 | 25.58109 | 50.86513 | 14879 ft | 379 kts | 284° |
| 2026-05-05 10:04 | 25.58779 | 50.83675 | 15285 ft | 382 kts | 284° |
| 2026-05-05 10:04 | 25.59444 | 50.80853 | 15691 ft | 384 kts | 283° |
| 2026-05-05 10:04 | 25.60122 | 50.77975 | 16079 ft | 387 kts | 283° |
| 2026-05-05 10:05 | 25.60805 | 50.75073 | 16486 ft | 390 kts | 283° |
| 2026-05-05 10:05 | 25.61489 | 50.72160 | 16886 ft | 393 kts | 283° |
| 2026-05-05 10:05 | 25.62182 | 50.69211 | 17278 ft | 396 kts | 283° |
| 2026-05-05 10:05 | 25.62876 | 50.66252 | 17669 ft | 398 kts | 283° |
| 2026-05-05 10:06 | 25.63577 | 50.63262 | 18058 ft | 401 kts | 283° |
| 2026-05-05 10:06 | 25.64271 | 50.60298 | 18397 ft | 403 kts | 283° |
| 2026-05-05 10:06 | 25.64977 | 50.57282 | 18768 ft | 405 kts | 283° |
| 2026-05-05 10:06 | 25.65684 | 50.54256 | 19140 ft | 406 kts | 283° |
| 2026-05-05 10:07 | 25.66394 | 50.51216 | 19436 ft | 410 kts | 283° |
| 2026-05-05 10:07 | 25.67114 | 50.48127 | 19598 ft | 417 kts | 283° |
| 2026-05-05 10:07 | 25.67845 | 50.44990 | 19752 ft | 423 kts | 283° |
| 2026-05-05 10:07 | 25.68585 | 50.41811 | 19894 ft | 429 kts | 283° |
| 2026-05-05 10:08 | 25.69336 | 50.38586 | 20037 ft | 435 kts | 283° |
| 2026-05-05 10:08 | 25.70097 | 50.35315 | 20224 ft | 439 kts | 283° |
| 2026-05-05 10:08 | 25.70863 | 50.32020 | 20487 ft | 441 kts | 283° |
| 2026-05-05 10:08 | 25.71629 | 50.28723 | 20773 ft | 443 kts | 283° |
| 2026-05-05 10:09 | 25.72399 | 50.25404 | 21062 ft | 444 kts | 283° |
| 2026-05-05 10:09 | 25.73158 | 50.22125 | 21358 ft | 445 kts | 283° |
| 2026-05-05 10:09 | 25.73930 | 50.18783 | 21647 ft | 447 kts | 283° |
| 2026-05-05 10:09 | 25.74701 | 50.15443 | 21939 ft | 448 kts | 283° |
| 2026-05-05 10:10 | 25.75472 | 50.12097 | 22196 ft | 449 kts | 283° |
| 2026-05-05 10:10 | 25.76247 | 50.08732 | 22490 ft | 450 kts | 283° |
| 2026-05-05 10:10 | 25.77022 | 50.05363 | 22774 ft | 451 kts | 283° |
| 2026-05-05 10:10 | 25.77797 | 50.01989 | 23045 ft | 452 kts | 283° |
| 2026-05-05 10:11 | 25.78575 | 49.98597 | 23293 ft | 454 kts | 283° |
| 2026-05-05 10:11 | 25.79352 | 49.95205 | 23520 ft | 455 kts | 283° |
| 2026-05-05 10:11 | 25.80134 | 49.91789 | 23749 ft | 456 kts | 283° |
| 2026-05-05 10:11 | 25.80905 | 49.88416 | 23981 ft | 456 kts | 283° |
| 2026-05-05 10:12 | 25.81685 | 49.85003 | 24217 ft | 457 kts | 282° |
| 2026-05-05 10:12 | 25.82467 | 49.81580 | 24439 ft | 458 kts | 282° |
| 2026-05-05 10:12 | 25.83247 | 49.78154 | 24655 ft | 459 kts | 282° |
| 2026-05-05 10:12 | 25.84029 | 49.74720 | 24877 ft | 459 kts | 282° |
| 2026-05-05 10:13 | 25.84813 | 49.71274 | 25095 ft | 460 kts | 282° |
| 2026-05-05 10:13 | 25.85595 | 49.67829 | 25306 ft | 461 kts | 282° |
| 2026-05-05 10:13 | 25.86398 | 49.64380 | 25511 ft | 462 kts | 283° |
| 2026-05-05 10:13 | 25.87287 | 49.60950 | 25737 ft | 463 kts | 284° |
| 2026-05-05 10:14 | 25.88228 | 49.57516 | 25957 ft | 464 kts | 284° |
| 2026-05-05 10:14 | 25.89183 | 49.54090 | 26172 ft | 464 kts | 284° |
| 2026-05-05 10:14 | 25.90125 | 49.50703 | 26369 ft | 465 kts | 284° |
| 2026-05-05 10:14 | 25.91074 | 49.47265 | 26566 ft | 466 kts | 284° |
| 2026-05-05 10:15 | 25.92016 | 49.43818 | 26778 ft | 466 kts | 284° |
| 2026-05-05 10:15 | 25.92957 | 49.40350 | 26979 ft | 467 kts | 283° |
| 2026-05-05 10:15 | 25.93892 | 49.36887 | 27170 ft | 468 kts | 283° |
| 2026-05-05 10:15 | 25.94825 | 49.33419 | 27398 ft | 468 kts | 283° |
| 2026-05-05 10:16 | 25.95759 | 49.29946 | 27606 ft | 469 kts | 283° |
| 2026-05-05 10:16 | 25.96691 | 49.26473 | 27797 ft | 470 kts | 283° |
| 2026-05-05 10:16 | 25.97614 | 49.23027 | 27985 ft | 470 kts | 283° |
| 2026-05-05 10:16 | 25.98548 | 49.19543 | 28172 ft | 471 kts | 283° |
| 2026-05-05 10:17 | 25.99485 | 49.16045 | 28363 ft | 472 kts | 283° |
| 2026-05-05 10:17 | 26.00420 | 49.12551 | 28552 ft | 472 kts | 283° |
| 2026-05-05 10:17 | 26.01356 | 49.09047 | 28723 ft | 473 kts | 283° |
| 2026-05-05 10:17 | 26.02294 | 49.05537 | 28876 ft | 474 kts | 283° |
| 2026-05-05 10:18 | 26.03232 | 49.02021 | 29026 ft | 474 kts | 283° |
| 2026-05-05 10:18 | 26.04171 | 48.98497 | 29167 ft | 474 kts | 283° |
| 2026-05-05 10:18 | 26.06044 | 48.91456 | 29372 ft | 475 kts | 283° |
| 2026-05-05 10:19 | 26.07906 | 48.84442 | 29541 ft | 476 kts | 282° |
| 2026-05-05 10:19 | 26.09778 | 48.77378 | 29665 ft | 476 kts | 282° |
| 2026-05-05 10:20 | 26.11647 | 48.70310 | 29763 ft | 471 kts | 282° |
| 2026-05-05 10:20 | 26.13481 | 48.63367 | 29766 ft | 472 kts | 282° |
| 2026-05-05 10:21 | 26.15332 | 48.56310 | 29766 ft | 477 kts | 282° |
| 2026-05-05 10:21 | 26.17193 | 48.49226 | 29770 ft | 477 kts | 282° |
| 2026-05-05 10:22 | 26.19043 | 48.42175 | 29778 ft | 477 kts | 282° |
| 2026-05-05 10:22 | 26.20899 | 48.35081 | 29772 ft | 477 kts | 282° |
| 2026-05-05 10:23 | 26.22751 | 48.27980 | 29778 ft | 477 kts | 282° |
| 2026-05-05 10:23 | 26.24602 | 48.20875 | 29777 ft | 477 kts | 282° |
| 2026-05-05 10:24 | 26.26438 | 48.13805 | 29779 ft | 477 kts | 282° |
| 2026-05-05 10:24 | 26.28278 | 48.06706 | 29783 ft | 477 kts | 282° |
| 2026-05-05 10:25 | 26.30115 | 47.99602 | 29784 ft | 477 kts | 282° |
| 2026-05-05 10:25 | 26.31947 | 47.92502 | 29787 ft | 477 kts | 282° |
| 2026-05-05 10:26 | 26.33779 | 47.85388 | 29785 ft | 477 kts | 282° |
| 2026-05-05 10:26 | 26.35606 | 47.78276 | 29789 ft | 477 kts | 282° |
| 2026-05-05 10:27 | 26.37427 | 47.71172 | 29791 ft | 476 kts | 282° |
| 2026-05-05 10:27 | 26.39234 | 47.64109 | 29791 ft | 476 kts | 282° |
| 2026-05-05 10:28 | 26.41045 | 47.57012 | 29795 ft | 476 kts | 282° |
| 2026-05-05 10:28 | 26.42855 | 47.49900 | 29797 ft | 476 kts | 281° |
| 2026-05-05 10:29 | 26.44660 | 47.42795 | 29798 ft | 476 kts | 281° |
| 2026-05-05 10:29 | 26.46460 | 47.35694 | 29801 ft | 476 kts | 281° |
| 2026-05-05 10:30 | 26.48256 | 47.28592 | 29813 ft | 475 kts | 281° |
| 2026-05-05 10:30 | 26.50048 | 47.21489 | 29809 ft | 475 kts | 281° |
| 2026-05-05 10:31 | 26.51828 | 47.14419 | 29814 ft | 475 kts | 281° |
| 2026-05-05 10:31 | 26.53616 | 47.07302 | 29817 ft | 475 kts | 281° |
| 2026-05-05 10:32 | 26.55399 | 47.00183 | 29822 ft | 475 kts | 281° |
| 2026-05-05 10:32 | 26.57162 | 46.93134 | 29825 ft | 473 kts | 281° |
| 2026-05-05 10:33 | 26.58928 | 46.86061 | 29837 ft | 472 kts | 281° |
| 2026-05-05 10:33 | 26.60689 | 46.78981 | 29837 ft | 472 kts | 281° |
| 2026-05-05 10:34 | 26.62447 | 46.71900 | 29830 ft | 472 kts | 281° |
| 2026-05-05 10:34 | 26.64198 | 46.64830 | 29844 ft | 472 kts | 281° |
| 2026-05-05 10:35 | 26.65651 | 46.58955 | 29846 ft | 471 kts | 281° |
| 2026-05-05 10:35 | 26.67679 | 46.50736 | 29843 ft | 471 kts | 281° |
| 2026-05-05 10:36 | 26.69417 | 46.43673 | 29845 ft | 471 kts | 281° |
| 2026-05-05 10:36 | 26.71147 | 46.36619 | 29842 ft | 470 kts | 281° |
| 2026-05-05 10:37 | 26.72587 | 46.30744 | 29843 ft | 470 kts | 281° |
| 2026-05-05 10:37 | 26.74311 | 46.23692 | 29844 ft | 469 kts | 281° |
| 2026-05-05 10:38 | 26.76031 | 46.16639 | 29845 ft | 469 kts | 281° |
| 2026-05-05 10:38 | 26.77745 | 46.09593 | 29841 ft | 469 kts | 281° |
| 2026-05-05 10:39 | 26.79456 | 46.02543 | 29846 ft | 469 kts | 281° |
| 2026-05-05 10:39 | 26.81161 | 45.95503 | 29849 ft | 469 kts | 281° |
| 2026-05-05 10:40 | 26.82852 | 45.88502 | 29851 ft | 468 kts | 281° |
| 2026-05-05 10:40 | 26.84549 | 45.81459 | 29848 ft | 468 kts | 281° |
| 2026-05-05 10:41 | 26.86242 | 45.74421 | 29853 ft | 468 kts | 281° |
| 2026-05-05 10:41 | 26.87932 | 45.67373 | 29856 ft | 468 kts | 281° |
| 2026-05-05 10:42 | 26.90458 | 45.56812 | 29852 ft | 468 kts | 280° |
| 2026-05-05 10:43 | 26.92138 | 45.49769 | 29863 ft | 468 kts | 280° |
| 2026-05-05 10:43 | 26.93802 | 45.42771 | 29860 ft | 469 kts | 280° |
| 2026-05-05 10:44 | 26.95482 | 45.35689 | 30131 ft | 469 kts | 280° |
| 2026-05-05 10:44 | 26.96315 | 45.32189 | 30706 ft | 460 kts | 280° |
| 2026-05-05 10:44 | 26.97133 | 45.28757 | 31456 ft | 451 kts | 279° |
| 2026-05-05 10:44 | 26.97934 | 45.25378 | 32069 ft | 447 kts | 279° |
| 2026-05-05 10:45 | 26.98726 | 45.22018 | 32562 ft | 445 kts | 279° |
| 2026-05-05 10:45 | 26.99512 | 45.18673 | 33140 ft | 441 kts | 278° |
| 2026-05-05 10:45 | 27.00290 | 45.15357 | 33617 ft | 440 kts | 278° |
| 2026-05-05 10:45 | 27.01068 | 45.12033 | 33862 ft | 440 kts | 278° |
| 2026-05-05 10:46 | 27.01843 | 45.08722 | 33877 ft | 439 kts | 278° |
| 2026-05-05 10:46 | 27.03403 | 45.02025 | 33879 ft | 452 kts | 278° |
| 2026-05-05 10:47 | 27.05006 | 44.95175 | 33876 ft | 454 kts | 278° |
| 2026-05-05 10:47 | 27.06611 | 44.88319 | 33908 ft | 455 kts | 278° |
| 2026-05-05 10:48 | 27.08215 | 44.81447 | 34105 ft | 454 kts | 278° |
| 2026-05-05 10:48 | 27.09014 | 44.78012 | 34206 ft | 454 kts | 278° |
| 2026-05-05 10:48 | 27.09811 | 44.74583 | 34300 ft | 454 kts | 278° |
| 2026-05-05 10:48 | 27.10608 | 44.71151 | 34411 ft | 453 kts | 278° |
| 2026-05-05 10:49 | 27.11400 | 44.67740 | 34741 ft | 447 kts | 278° |
| 2026-05-05 10:49 | 27.12168 | 44.64448 | 35378 ft | 438 kts | 278° |
| 2026-05-05 10:49 | 27.12934 | 44.61156 | 35881 ft | 434 kts | 277° |
| 2026-05-05 10:49 | 27.13688 | 44.57891 | 36266 ft | 432 kts | 277° |
| 2026-05-05 10:50 | 27.14439 | 44.54623 | 36603 ft | 432 kts | 277° |
| 2026-05-05 10:50 | 27.15188 | 44.51360 | 36935 ft | 431 kts | 277° |
| 2026-05-05 10:50 | 27.15935 | 44.48108 | 37314 ft | 430 kts | 277° |
| 2026-05-05 10:50 | 27.16682 | 44.44860 | 37669 ft | 429 kts | 277° |
| 2026-05-05 10:51 | 27.17425 | 44.41623 | 38008 ft | 428 kts | 276° |
| 2026-05-05 10:51 | 27.18168 | 44.38383 | 38345 ft | 428 kts | 276° |
| 2026-05-05 10:51 | 27.18910 | 44.35148 | 38654 ft | 427 kts | 276° |
| 2026-05-05 10:51 | 27.19650 | 44.31913 | 38914 ft | 427 kts | 276° |
| 2026-05-05 10:52 | 27.20389 | 44.28682 | 39168 ft | 427 kts | 276° |
| 2026-05-05 10:52 | 27.21126 | 44.25455 | 39427 ft | 426 kts | 276° |
| 2026-05-05 10:52 | 27.21862 | 44.22229 | 39680 ft | 426 kts | 276° |
| 2026-05-05 10:52 | 27.22598 | 44.18999 | 39852 ft | 427 kts | 276° |
| 2026-05-05 10:53 | 27.23334 | 44.15760 | 39894 ft | 429 kts | 277° |
| 2026-05-05 10:53 | 27.24821 | 44.09186 | 39890 ft | 438 kts | 277° |
| 2026-05-05 10:54 | 27.26320 | 44.02568 | 39892 ft | 441 kts | 277° |
| 2026-05-05 10:54 | 27.27835 | 43.95884 | 39896 ft | 441 kts | 277° |
| 2026-05-05 10:55 | 27.29342 | 43.89211 | 39896 ft | 441 kts | 277° |
| 2026-05-05 10:55 | 27.30846 | 43.82530 | 39901 ft | 441 kts | 277° |
| 2026-05-05 10:56 | 27.32348 | 43.75841 | 39901 ft | 440 kts | 277° |
| 2026-05-05 10:56 | 27.33845 | 43.69156 | 39903 ft | 440 kts | 277° |
| 2026-05-05 10:57 | 27.35329 | 43.62511 | 39911 ft | 440 kts | 277° |
| 2026-05-05 10:57 | 27.36820 | 43.55820 | 39913 ft | 440 kts | 276° |
| 2026-05-05 10:58 | 27.38307 | 43.49132 | 39915 ft | 440 kts | 276° |
| 2026-05-05 10:58 | 27.39790 | 43.42444 | 39918 ft | 440 kts | 276° |
| 2026-05-05 10:59 | 27.41270 | 43.35754 | 39922 ft | 441 kts | 276° |
| 2026-05-05 10:59 | 27.42748 | 43.29060 | 39925 ft | 441 kts | 276° |
| 2026-05-05 11:00 | 27.44222 | 43.22363 | 39930 ft | 441 kts | 276° |
| 2026-05-05 11:00 | 27.45696 | 43.15653 | 39935 ft | 441 kts | 276° |
| 2026-05-05 11:01 | 27.47166 | 43.08943 | 39937 ft | 441 kts | 276° |
| 2026-05-05 11:01 | 27.48634 | 43.02226 | 39937 ft | 442 kts | 276° |
| 2026-05-05 11:02 | 27.50100 | 42.95500 | 39942 ft | 442 kts | 276° |
| 2026-05-05 11:02 | 27.51562 | 42.88781 | 39948 ft | 441 kts | 276° |
| 2026-05-05 11:03 | 27.53010 | 42.82105 | 39949 ft | 441 kts | 276° |
| 2026-05-05 11:03 | 27.54463 | 42.75390 | 39955 ft | 441 kts | 276° |
| 2026-05-05 11:04 | 27.55913 | 42.68676 | 39957 ft | 441 kts | 276° |
| 2026-05-05 11:04 | 27.57358 | 42.61964 | 39966 ft | 440 kts | 276° |
| 2026-05-05 11:05 | 27.58799 | 42.55260 | 39970 ft | 440 kts | 276° |
| 2026-05-05 11:05 | 27.60235 | 42.48559 | 39971 ft | 439 kts | 276° |
| 2026-05-05 11:06 | 27.61656 | 42.41912 | 39970 ft | 438 kts | 276° |
| 2026-05-05 11:06 | 27.63082 | 42.35222 | 39976 ft | 438 kts | 276° |
| 2026-05-05 11:07 | 27.64501 | 42.28548 | 39978 ft | 437 kts | 276° |
| 2026-05-05 11:07 | 27.65916 | 42.21875 | 39976 ft | 436 kts | 276° |
| 2026-05-05 11:08 | 27.67314 | 42.15269 | 39985 ft | 436 kts | 276° |
| 2026-05-05 11:08 | 27.68719 | 42.08612 | 39980 ft | 435 kts | 276° |
| 2026-05-05 11:09 | 27.70118 | 42.01967 | 39987 ft | 435 kts | 276° |
| 2026-05-05 11:09 | 27.71515 | 41.95318 | 39989 ft | 435 kts | 276° |
| 2026-05-05 11:10 | 27.72900 | 41.88702 | 39993 ft | 434 kts | 276° |
| 2026-05-05 11:10 | 27.74290 | 41.82052 | 39994 ft | 434 kts | 276° |
| 2026-05-05 11:11 | 27.75675 | 41.75408 | 39995 ft | 434 kts | 276° |
| 2026-05-05 11:11 | 27.77055 | 41.68767 | 40000 ft | 434 kts | 276° |
| 2026-05-05 11:12 | 27.78424 | 41.62166 | 40001 ft | 434 kts | 276° |
| 2026-05-05 11:12 | 27.79798 | 41.55521 | 40007 ft | 434 kts | 276° |
| 2026-05-05 11:13 | 27.81168 | 41.48884 | 40010 ft | 433 kts | 276° |
| 2026-05-05 11:13 | 27.82532 | 41.42257 | 40011 ft | 433 kts | 276° |
| 2026-05-05 11:14 | 27.83891 | 41.35633 | 40008 ft | 432 kts | 276° |
| 2026-05-05 11:14 | 27.85245 | 41.29016 | 40011 ft | 432 kts | 276° |
| 2026-05-05 11:15 | 27.86598 | 41.22391 | 40009 ft | 431 kts | 276° |
| 2026-05-05 11:15 | 27.87935 | 41.15826 | 40010 ft | 431 kts | 276° |
| 2026-05-05 11:16 | 27.89275 | 41.09233 | 40010 ft | 430 kts | 276° |
| 2026-05-05 11:16 | 27.90613 | 41.02628 | 40008 ft | 430 kts | 276° |
| 2026-05-05 11:17 | 27.91946 | 40.96032 | 40013 ft | 430 kts | 276° |
| 2026-05-05 11:17 | 27.93277 | 40.89428 | 40007 ft | 431 kts | 276° |
| 2026-05-05 11:18 | 27.94598 | 40.82860 | 40014 ft | 430 kts | 276° |
| 2026-05-05 11:18 | 27.95923 | 40.76249 | 40013 ft | 430 kts | 275° |
| 2026-05-05 11:19 | 27.97243 | 40.69644 | 40023 ft | 430 kts | 275° |
| 2026-05-05 11:19 | 27.98562 | 40.63031 | 40014 ft | 430 kts | 275° |
| 2026-05-05 11:20 | 27.99876 | 40.56421 | 40022 ft | 430 kts | 275° |
| 2026-05-05 11:20 | 28.01188 | 40.49805 | 40027 ft | 430 kts | 275° |
| 2026-05-05 11:21 | 28.02489 | 40.43235 | 40023 ft | 430 kts | 275° |
| 2026-05-05 11:21 | 28.03794 | 40.36623 | 40019 ft | 430 kts | 275° |
| 2026-05-05 11:22 | 28.05095 | 40.30012 | 40024 ft | 431 kts | 275° |
| 2026-05-05 11:22 | 28.06395 | 40.23390 | 40022 ft | 431 kts | 275° |
| 2026-05-05 11:23 | 28.07697 | 40.16748 | 40024 ft | 431 kts | 275° |
| 2026-05-05 11:23 | 28.08992 | 40.10109 | 40024 ft | 431 kts | 275° |
| 2026-05-05 11:24 | 28.10066 | 40.04595 | 40023 ft | 431 kts | 275° |
| 2026-05-05 11:24 | 28.11359 | 39.97936 | 40030 ft | 432 kts | 275° |
| 2026-05-05 11:25 | 28.12647 | 39.91290 | 40031 ft | 432 kts | 275° |
| 2026-05-05 11:25 | 28.13924 | 39.84681 | 40032 ft | 432 kts | 275° |
| 2026-05-05 11:26 | 28.15207 | 39.78020 | 40028 ft | 432 kts | 275° |
| 2026-05-05 11:26 | 28.16485 | 39.71371 | 40029 ft | 431 kts | 275° |
| 2026-05-05 11:27 | 28.17759 | 39.64723 | 40028 ft | 431 kts | 275° |
| 2026-05-05 11:27 | 28.19028 | 39.58085 | 40031 ft | 431 kts | 275° |
| 2026-05-05 11:28 | 28.20285 | 39.51487 | 40027 ft | 430 kts | 275° |
| 2026-05-05 11:28 | 28.21547 | 39.44846 | 40029 ft | 430 kts | 275° |
| 2026-05-05 11:29 | 28.22805 | 39.38208 | 40028 ft | 430 kts | 275° |
| 2026-05-05 11:29 | 28.24058 | 39.31578 | 40030 ft | 430 kts | 275° |
| 2026-05-05 11:30 | 28.25307 | 39.24949 | 40033 ft | 429 kts | 275° |
| 2026-05-05 11:30 | 28.26552 | 39.18329 | 40026 ft | 429 kts | 275° |
| 2026-05-05 11:31 | 28.27794 | 39.11701 | 40024 ft | 429 kts | 275° |
| 2026-05-05 11:31 | 28.29023 | 39.05123 | 40024 ft | 428 kts | 275° |
| 2026-05-05 11:32 | 28.30256 | 38.98509 | 40019 ft | 428 kts | 275° |
| 2026-05-05 11:32 | 28.31484 | 38.91900 | 40021 ft | 428 kts | 275° |
| 2026-05-05 11:33 | 28.32707 | 38.85298 | 40017 ft | 427 kts | 275° |
| 2026-05-05 11:33 | 28.33927 | 38.78700 | 40016 ft | 427 kts | 275° |
| 2026-05-05 11:34 | 28.35144 | 38.72094 | 40017 ft | 427 kts | 275° |
| 2026-05-05 11:34 | 28.36356 | 38.65499 | 40014 ft | 427 kts | 275° |
| 2026-05-05 11:35 | 28.37565 | 38.58898 | 40011 ft | 427 kts | 275° |
| 2026-05-05 11:35 | 28.38764 | 38.52332 | 40013 ft | 427 kts | 275° |
| 2026-05-05 11:36 | 28.39968 | 38.45727 | 40010 ft | 427 kts | 275° |
| 2026-05-05 11:36 | 28.41169 | 38.39110 | 40010 ft | 427 kts | 275° |
| 2026-05-05 11:37 | 28.42366 | 38.32502 | 40007 ft | 427 kts | 275° |
| 2026-05-05 11:37 | 28.43562 | 38.25878 | 40009 ft | 428 kts | 275° |
| 2026-05-05 11:38 | 28.44757 | 38.19246 | 40001 ft | 428 kts | 275° |
| 2026-05-05 11:38 | 28.45941 | 38.12650 | 39999 ft | 429 kts | 275° |
| 2026-05-05 11:39 | 28.47131 | 38.06002 | 40000 ft | 429 kts | 275° |
| 2026-05-05 11:39 | 28.48319 | 37.99351 | 39997 ft | 429 kts | 275° |
| 2026-05-05 11:40 | 28.49503 | 37.92697 | 39994 ft | 429 kts | 275° |
| 2026-05-05 11:40 | 28.50684 | 37.86042 | 39995 ft | 429 kts | 275° |